Etowah, NC (28729)

8:27 PM EDT on August 31, 2015 (GMT -0400)
IndianBend-Etowah | | Change Station
CLOSE
Current Station
Personal Weather Station
Location: Hendersonville, NC
Elevation: 2453 ft
Nearby Weather Stations

Elev 2453 ft 35.28 °N, 82.61 °W | Updated 1 second ago

Partly Cloudy
Partly Cloudy
71.4 °F
Feels Like 71.4 °F
N
0.0
Wind Variable Wind from NW
Gusts 0.0 mph

Today
High -- | Low -- °F
--% Chance of Precip.
Yesterday
High -- | Low -- °F
Precip. -- in
7:01 AM 7:59 PM
Waning Gibbous, 93% visible
Pressure 30.07 in
Visibility 10.0 miles
Clouds Overcast 4800 ft
Dew Point 67 °F
Humidity 87%
Rainfall 0.00 in
Snow Depth Not available.
UV 0 out of 12
Pollen 8.40 out of 12
Air Quality Not available.
Flu Activity Not available.
METAR KAVL 312354Z 10003KT 10SM OVC048 26/17 A3014 RMK AO2 SLP183 T02560172 10300 20256 53006
Pressure 30.07 in
Visibility 10.0 miles
Clouds Overcast 4800 ft
Dew Point 67 °F
Humidity 87%
Rainfall 0.00 in
Snow Depth Not available.
UV 0 out of 12
Pollen 8.40 out of 12
Air Quality Not available.
Flu Activity Not available.
METAR KAVL 312354Z 10003KT 10SM OVC048 26/17 A3014 RMK AO2 SLP183 T02560172 10300 20256 53006

10-Day Weather Forecast

×

Almanac

Astronomy

Aug. 31, 2015 Rise Set
Actual Time
Civil Twilight
Nautical Twilight
Astronomical Twilight
Moon
Length of Visible Light
Length of Day
Tomorrow will be .
, % of the Moon is Illuminated

Today's Extremes

State Highs State Lows

Community

WunderPhotos

Upload Photos

1,851,405 photos uploaded!

WunderBlogs® & News

Nearby

Air Quality

  Air Quality AQ Index Pollutant
Not available.

Snow Depth

Station Depth Elevation

Earthquake Activity

City Distance Mag. Time & Date
Minimum magnitude displayed is 2.5.

Coastal Water Temperatures

Place Temperature

Stations

Nearby Weather Stations

Station Location Temp. Windchill Dew Point Humidity Wind Precip. Elev Updated Type